Terminal Aerodrome Forecast
Issued by NWS Buffalo, NY

Home | Current Version | Previous Version | Text Only | Print | Product List | Glossary On
Versions: 1 2 3 4 5 6 7 8 9 10 11 12 13 14 15 16 17 18 19 20 21 22 23 24 25 26 27
000
FTUS41 KBUF 291900 AAA
TAFROC
TAF AMD
KROC 291926Z 2919/3018 32008KT P6SM BKN060
     FM300100 24005KT P6SM BKN050
     FM301400 22009KT P6SM VCSH BKN035
     FM301700 26010KT 6SM -SHRA OVC045=

USA.gov is the U.S. government's official web portal to all federal, state and local government web resources and services.